sensor_id;sensor_type;location;lat;lon;timestamp;pressure;altitude;pressure_sealevel;temperature;humidity
58092;BME280;43896;48.178;11.578;2023-02-13T00:01:05;97737.94;;;3.36;76.81
58092;BME280;43896;48.178;11.578;2023-02-13T00:03:30;97703.44;;;3.12;77.03
58092;BME280;43896;48.178;11.578;2023-02-13T00:05:56;97737.06;;;3.56;76.89
58092;BME280;43896;48.178;11.578;2023-02-13T00:08:21;97726.03;;;3.51;75.35
58092;BME280;43896;48.178;11.578;2023-02-13T00:10:47;97735.94;;;3.62;76.65
58092;BME280;43896;48.178;11.578;2023-02-13T00:13:12;97727.44;;;3.58;76.17
58092;BME280;43896;48.178;11.578;2023-02-13T00:15:38;97738.84;;;3.74;76.11
58092;BME280;43896;48.178;11.578;2023-02-13T00:18:03;97732.59;;;3.79;75.09
58092;BME280;43896;48.178;11.578;2023-02-13T00:20:28;97700.09;;;3.49;75.31
58092;BME280;43896;48.178;11.578;2023-02-13T00:22:54;97722.19;;;3.79;74.96
58092;BME280;43896;48.178;11.578;2023-02-13T00:25:19;97727.25;;;3.82;74.43
58092;BME280;43896;48.178;11.578;2023-02-13T00:27:44;97722.97;;;3.41;75.94
58092;BME280;43896;48.178;11.578;2023-02-13T00:30:10;97724.44;;;3.07;77.43
58092;BME280;43896;48.178;11.578;2023-02-13T00:32:35;97718.47;;;3.45;76.88
58092;BME280;43896;48.178;11.578;2023-02-13T00:35:01;97705.69;;;3.40;76.23
58092;BME280;43896;48.178;11.578;2023-02-13T00:37:26;97712.25;;;3.28;76.72
58092;BME280;43896;48.178;11.578;2023-02-13T00:39:51;97698.34;;;3.29;76.88
58092;BME280;43896;48.178;11.578;2023-02-13T00:42:17;97695.91;;;3.06;76.97
58092;BME280;43896;48.178;11.578;2023-02-13T00:44:42;97690.84;;;2.82;77.74
58092;BME280;43896;48.178;11.578;2023-02-13T00:47:07;97695.06;;;3.05;78.03
58092;BME280;43896;48.178;11.578;2023-02-13T00:49:33;97705.75;;;3.57;75.62
58092;BME280;43896;48.178;11.578;2023-02-13T00:51:58;97678.16;;;3.55;75.05
58092;BME280;43896;48.178;11.578;2023-02-13T00:54:24;97694.56;;;3.36;75.92
58092;BME280;43896;48.178;11.578;2023-02-13T00:56:49;97689.69;;;3.49;75.24
58092;BME280;43896;48.178;11.578;2023-02-13T00:59:14;97701.00;;;3.28;77.28
58092;BME280;43896;48.178;11.578;2023-02-13T01:01:42;97715.75;;;3.48;76.65
58092;BME280;43896;48.178;11.578;2023-02-13T01:04:07;97684.41;;;3.51;75.37
58092;BME280;43896;48.178;11.578;2023-02-13T01:06:33;97676.31;;;3.17;77.31
58092;BME280;43896;48.178;11.578;2023-02-13T01:08:58;97701.50;;;3.56;75.88
58092;BME280;43896;48.178;11.578;2023-02-13T01:11:23;97704.22;;;3.14;77.66
58092;BME280;43896;48.178;11.578;2023-02-13T01:13:49;97697.94;;;3.38;76.31
58092;BME280;43896;48.178;11.578;2023-02-13T01:16:14;97690.63;;;3.28;77.57
58092;BME280;43896;48.178;11.578;2023-02-13T01:18:42;97695.13;;;3.43;77.34
58092;BME280;43896;48.178;11.578;2023-02-13T01:21:11;97712.88;;;3.54;76.70
58092;BME280;43896;48.178;11.578;2023-02-13T01:23:39;97700.16;;;3.67;76.17
58092;BME280;43896;48.178;11.578;2023-02-13T01:26:05;97698.09;;;3.35;76.17
58092;BME280;43896;48.178;11.578;2023-02-13T01:28:32;97697.91;;;3.19;77.26
58092;BME280;43896;48.178;11.578;2023-02-13T01:30:57;97701.38;;;3.20;77.57
58092;BME280;43896;48.178;11.578;2023-02-13T01:33:24;97686.41;;;3.25;77.68
58092;BME280;43896;48.178;11.578;2023-02-13T01:35:50;97666.91;;;3.15;76.68
58092;BME280;43896;48.178;11.578;2023-02-13T01:38:16;97672.94;;;3.36;76.72
58092;BME280;43896;48.178;11.578;2023-02-13T01:40:51;97705.19;;;3.71;75.98
58092;BME280;43896;48.178;11.578;2023-02-13T01:43:17;97703.72;;;3.64;77.38
58092;BME280;43896;48.178;11.578;2023-02-13T01:45:44;97676.88;;;3.45;76.21
58092;BME280;43896;48.178;11.578;2023-02-13T01:48:12;97704.72;;;3.43;76.65
58092;BME280;43896;48.178;11.578;2023-02-13T01:50:47;97671.03;;;3.40;76.81
58092;BME280;43896;48.178;11.578;2023-02-13T01:53:25;97674.19;;;3.07;77.73
58092;BME280;43896;48.178;11.578;2023-02-13T01:55:54;97701.44;;;3.58;76.44
58092;BME280;43896;48.178;11.578;2023-02-13T01:58:28;97691.06;;;3.37;76.52
58092;BME280;43896;48.178;11.578;2023-02-13T02:00:56;97664.28;;;3.35;76.28
58092;BME280;43896;48.178;11.578;2023-02-13T02:05:50;97699.09;;;3.52;76.56
58092;BME280;43896;48.178;11.578;2023-02-13T02:08:20;97701.38;;;3.60;76.11
58092;BME280;43896;48.178;11.578;2023-02-13T02:10:46;97700.03;;;3.70;76.21
58092;BME280;43896;48.178;11.578;2023-02-13T02:13:14;97696.56;;;3.69;76.20
58092;BME280;43896;48.178;11.578;2023-02-13T02:15:42;97709.63;;;3.49;76.54
58092;BME280;43896;48.178;11.578;2023-02-13T02:18:19;97694.47;;;3.59;76.44
58092;BME280;43896;48.178;11.578;2023-02-13T02:21:22;97697.13;;;3.57;75.99
58092;BME280;43896;48.178;11.578;2023-02-13T02:24:05;97708.84;;;3.47;76.24
58092;BME280;43896;48.178;11.578;2023-02-13T02:32:42;97714.47;;;2.76;78.35
58092;BME280;43896;48.178;11.578;2023-02-13T02:35:22;97711.56;;;3.04;76.96
58092;BME280;43896;48.178;11.578;2023-02-13T02:43:24;97715.84;;;3.26;75.26
58092;BME280;43896;48.178;11.578;2023-02-13T02:54:34;97712.59;;;3.60;75.16
58092;BME280;43896;48.178;11.578;2023-02-13T02:58:05;97680.69;;;3.17;76.70
58092;BME280;43896;48.178;11.578;2023-02-13T03:00:54;97712.38;;;3.46;75.87
58092;BME280;43896;48.178;11.578;2023-02-13T03:03:40;97701.84;;;3.28;76.51
58092;BME280;43896;48.178;11.578;2023-02-13T03:06:43;97708.00;;;3.07;76.63
58092;BME280;43896;48.178;11.578;2023-02-13T03:09:14;97704.16;;;3.15;76.66
58092;BME280;43896;48.178;11.578;2023-02-13T03:11:59;97688.50;;;2.96;77.68
58092;BME280;43896;48.178;11.578;2023-02-13T03:14:43;97675.56;;;3.15;75.97
58092;BME280;43896;48.178;11.578;2023-02-13T03:17:14;97673.66;;;3.19;75.79
58092;BME280;43896;48.178;11.578;2023-02-13T03:22:59;97698.22;;;3.32;75.87
58092;BME280;43896;48.178;11.578;2023-02-13T03:25:37;97703.25;;;3.16;76.03
58092;BME280;43896;48.178;11.578;2023-02-13T03:28:16;97680.94;;;2.90;76.37
58092;BME280;43896;48.178;11.578;2023-02-13T03:42:30;97686.09;;;2.92;75.75
58092;BME280;43896;48.178;11.578;2023-02-13T03:45:03;97704.94;;;2.97;75.83
58092;BME280;43896;48.178;11.578;2023-02-13T03:47:52;97704.22;;;2.93;76.10
58092;BME280;43896;48.178;11.578;2023-02-13T03:50:20;97717.78;;;3.21;75.49
58092;BME280;43896;48.178;11.578;2023-02-13T03:52:55;97708.06;;;3.05;75.79
58092;BME280;43896;48.178;11.578;2023-02-13T03:55:25;97703.97;;;3.20;75.06
58092;BME280;43896;48.178;11.578;2023-02-13T03:58:13;97710.84;;;3.21;75.55
58092;BME280;43896;48.178;11.578;2023-02-13T04:01:01;97693.63;;;2.77;76.68
58092;BME280;43896;48.178;11.578;2023-02-13T04:06:05;97685.06;;;2.33;77.34
58092;BME280;43896;48.178;11.578;2023-02-13T04:08:32;97708.50;;;2.74;76.85
58092;BME280;43896;48.178;11.578;2023-02-13T04:13:33;97727.78;;;3.09;75.64
58092;BME280;43896;48.178;11.578;2023-02-13T04:16:06;97710.59;;;2.86;76.66
58092;BME280;43896;48.178;11.578;2023-02-13T04:18:34;97701.50;;;2.96;76.35
58092;BME280;43896;48.178;11.578;2023-02-13T04:21:03;97728.13;;;3.02;76.38
58092;BME280;43896;48.178;11.578;2023-02-13T04:23:29;97713.97;;;2.88;76.12
58092;BME280;43896;48.178;11.578;2023-02-13T04:25:55;97718.50;;;3.04;75.58
58092;BME280;43896;48.178;11.578;2023-02-13T04:28:22;97705.09;;;3.13;74.88
58092;BME280;43896;48.178;11.578;2023-02-13T04:30:47;97714.78;;;2.89;75.16
58092;BME280;43896;48.178;11.578;2023-02-13T04:33:14;97714.72;;;2.90;76.18
58092;BME280;43896;48.178;11.578;2023-02-13T04:35:39;97716.03;;;2.80;76.33
58092;BME280;43896;48.178;11.578;2023-02-13T04:38:05;97709.94;;;3.02;75.62
58092;BME280;43896;48.178;11.578;2023-02-13T04:40:30;97684.97;;;2.56;77.08
58092;BME280;43896;48.178;11.578;2023-02-13T04:42:55;97688.25;;;2.82;76.34
58092;BME280;43896;48.178;11.578;2023-02-13T04:45:21;97697.41;;;3.11;75.22
58092;BME280;43896;48.178;11.578;2023-02-13T04:47:54;97706.94;;;2.90;76.47
58092;BME280;43896;48.178;11.578;2023-02-13T04:50:20;97712.84;;;3.14;75.79
58092;BME280;43896;48.178;11.578;2023-02-13T04:52:45;97697.34;;;2.72;77.63
58092;BME280;43896;48.178;11.578;2023-02-13T04:55:11;97721.56;;;3.13;76.68
58092;BME280;43896;48.178;11.578;2023-02-13T04:57:37;97713.50;;;2.99;77.09
58092;BME280;43896;48.178;11.578;2023-02-13T05:00:04;97704.75;;;3.02;76.87
58092;BME280;43896;48.178;11.578;2023-02-13T05:02:30;97710.28;;;3.33;76.24
58092;BME280;43896;48.178;11.578;2023-02-13T05:04:55;97708.97;;;3.44;74.80
58092;BME280;43896;48.178;11.578;2023-02-13T05:07:20;97717.09;;;3.56;74.91
58092;BME280;43896;48.178;11.578;2023-02-13T05:09:46;97716.66;;;3.47;74.65
58092;BME280;43896;48.178;11.578;2023-02-13T05:12:11;97722.28;;;3.37;74.91
58092;BME280;43896;48.178;11.578;2023-02-13T05:14:36;97715.59;;;2.91;75.26
58092;BME280;43896;48.178;11.578;2023-02-13T05:17:01;97713.97;;;2.88;76.52
58092;BME280;43896;48.178;11.578;2023-02-13T05:19:27;97688.63;;;2.93;75.27
58092;BME280;43896;48.178;11.578;2023-02-13T05:21:52;97710.00;;;3.21;74.96
58092;BME280;43896;48.178;11.578;2023-02-13T05:24:35;97723.56;;;3.48;74.17
58092;BME280;43896;48.178;11.578;2023-02-13T05:27:01;97717.16;;;3.55;73.77
58092;BME280;43896;48.178;11.578;2023-02-13T05:29:26;97689.50;;;3.33;73.46
58092;BME280;43896;48.178;11.578;2023-02-13T05:31:54;97712.66;;;3.19;73.74
58092;BME280;43896;48.178;11.578;2023-02-13T05:34:20;97729.44;;;3.32;74.39
58092;BME280;43896;48.178;11.578;2023-02-13T05:36:46;97722.22;;;3.18;74.41
58092;BME280;43896;48.178;11.578;2023-02-13T05:39:12;97710.97;;;3.18;74.31
58092;BME280;43896;48.178;11.578;2023-02-13T05:41:38;97724.44;;;3.07;74.96
58092;BME280;43896;48.178;11.578;2023-02-13T05:44:03;97712.91;;;3.13;74.81
58092;BME280;43896;48.178;11.578;2023-02-13T05:46:28;97692.72;;;2.99;74.24
58092;BME280;43896;48.178;11.578;2023-02-13T05:48:54;97698.53;;;3.25;73.39
58092;BME280;43896;48.178;11.578;2023-02-13T05:51:19;97705.50;;;3.24;73.61
58092;BME280;43896;48.178;11.578;2023-02-13T05:53:44;97733.06;;;3.28;74.06
58092;BME280;43896;48.178;11.578;2023-02-13T05:56:10;97728.50;;;3.33;74.03
58092;BME280;43896;48.178;11.578;2023-02-13T05:58:36;97745.03;;;3.12;75.29
58092;BME280;43896;48.178;11.578;2023-02-13T06:01:01;97721.56;;;3.13;74.86
58092;BME280;43896;48.178;11.578;2023-02-13T06:03:28;97732.50;;;3.01;75.49
58092;BME280;43896;48.178;11.578;2023-02-13T06:05:54;97753.22;;;3.23;75.20
58092;BME280;43896;48.178;11.578;2023-02-13T06:08:20;97746.31;;;3.43;73.76
58092;BME280;43896;48.178;11.578;2023-02-13T06:10:46;97738.22;;;3.49;73.74
58092;BME280;43896;48.178;11.578;2023-02-13T06:13:11;97730.13;;;3.36;73.49
58092;BME280;43896;48.178;11.578;2023-02-13T06:15:37;97742.16;;;3.18;74.34
58092;BME280;43896;48.178;11.578;2023-02-13T06:18:02;97734.09;;;2.83;75.14
58092;BME280;43896;48.178;11.578;2023-02-13T06:20:27;97745.28;;;3.26;74.76
58092;BME280;43896;48.178;11.578;2023-02-13T06:22:53;97741.44;;;3.35;73.93
58092;BME280;43896;48.178;11.578;2023-02-13T06:25:19;97741.50;;;3.33;73.73
58092;BME280;43896;48.178;11.578;2023-02-13T06:27:45;97750.53;;;3.45;73.94
58092;BME280;43896;48.178;11.578;2023-02-13T06:30:11;97750.59;;;3.44;73.69
58092;BME280;43896;48.178;11.578;2023-02-13T06:32:36;97749.63;;;3.46;73.51
58092;BME280;43896;48.178;11.578;2023-02-13T06:35:01;97753.78;;;3.50;73.84
58092;BME280;43896;48.178;11.578;2023-02-13T06:37:26;97760.63;;;3.53;74.23
58092;BME280;43896;48.178;11.578;2023-02-13T06:39:52;97762.13;;;3.38;74.60
58092;BME280;43896;48.178;11.578;2023-02-13T06:42:17;97754.84;;;3.26;75.07
58092;BME280;43896;48.178;11.578;2023-02-13T06:44:43;97760.28;;;3.40;74.66
58092;BME280;43896;48.178;11.578;2023-02-13T06:47:08;97765.78;;;3.34;74.64
58092;BME280;43896;48.178;11.578;2023-02-13T06:49:34;97751.94;;;2.70;77.16
58092;BME280;43896;48.178;11.578;2023-02-13T06:51:59;97770.19;;;3.32;75.23
58092;BME280;43896;48.178;11.578;2023-02-13T06:54:24;97772.28;;;3.44;74.62
58092;BME280;43896;48.178;11.578;2023-02-13T06:56:50;97756.97;;;3.36;74.55
58092;BME280;43896;48.178;11.578;2023-02-13T06:59:15;97738.41;;;3.46;74.04
58092;BME280;43896;48.178;11.578;2023-02-13T07:01:40;97756.34;;;3.71;73.56
58092;BME280;43896;48.178;11.578;2023-02-13T07:04:05;97761.28;;;3.77;72.68
58092;BME280;43896;48.178;11.578;2023-02-13T07:06:31;97770.78;;;3.78;72.09
58092;BME280;43896;48.178;11.578;2023-02-13T07:08:56;97762.25;;;3.74;72.62
58092;BME280;43896;48.178;11.578;2023-02-13T07:11:23;97779.97;;;3.87;71.92
58092;BME280;43896;48.178;11.578;2023-02-13T07:13:49;97772.66;;;3.74;72.22
58092;BME280;43896;48.178;11.578;2023-02-13T07:16:15;97788.25;;;3.55;72.97
58092;BME280;43896;48.178;11.578;2023-02-13T07:18:49;97777.88;;;3.74;73.05
58092;BME280;43896;48.178;11.578;2023-02-13T07:21:14;97774.78;;;3.66;72.59
58092;BME280;43896;48.178;11.578;2023-02-13T07:23:40;97790.94;;;3.73;72.37
58092;BME280;43896;48.178;11.578;2023-02-13T07:26:05;97778.41;;;3.62;73.13
58092;BME280;43896;48.178;11.578;2023-02-13T07:28:31;97790.41;;;3.46;72.96
58092;BME280;43896;48.178;11.578;2023-02-13T07:30:56;97778.94;;;3.50;73.04
58092;BME280;43896;48.178;11.578;2023-02-13T07:33:22;97805.50;;;3.58;73.76
58092;BME280;43896;48.178;11.578;2023-02-13T07:35:49;97807.22;;;3.57;72.98
58092;BME280;43896;48.178;11.578;2023-02-13T07:38:15;97808.13;;;3.77;72.27
58092;BME280;43896;48.178;11.578;2023-02-13T07:40:41;97810.69;;;3.58;73.44
58092;BME280;43896;48.178;11.578;2023-02-13T07:43:06;97816.84;;;3.76;72.41
58092;BME280;43896;48.178;11.578;2023-02-13T07:45:32;97796.63;;;3.42;72.84
58092;BME280;43896;48.178;11.578;2023-02-13T07:47:57;97810.16;;;3.29;73.91
58092;BME280;43896;48.178;11.578;2023-02-13T07:50:23;97823.41;;;3.23;74.43
58092;BME280;43896;48.178;11.578;2023-02-13T07:52:57;97826.94;;;3.63;72.79
58092;BME280;43896;48.178;11.578;2023-02-13T07:55:22;97808.56;;;3.47;72.86
58092;BME280;43896;48.178;11.578;2023-02-13T07:57:48;97838.84;;;3.69;73.00
58092;BME280;43896;48.178;11.578;2023-02-13T08:00:14;97833.69;;;3.67;73.72
58092;BME280;43896;48.178;11.578;2023-02-13T08:02:40;97832.38;;;3.78;73.14
58092;BME280;43896;48.178;11.578;2023-02-13T08:05:06;97823.06;;;3.92;72.94
58092;BME280;43896;48.178;11.578;2023-02-13T08:07:31;97827.25;;;3.76;73.75
58092;BME280;43896;48.178;11.578;2023-02-13T08:09:56;97813.00;;;3.64;72.98
58092;BME280;43896;48.178;11.578;2023-02-13T08:12:40;97825.41;;;3.78;72.96
58092;BME280;43896;48.178;11.578;2023-02-13T08:15:08;97815.31;;;3.51;73.59
58092;BME280;43896;48.178;11.578;2023-02-13T08:17:35;97824.47;;;3.40;73.67
58092;BME280;43896;48.178;11.578;2023-02-13T08:20:00;97807.81;;;3.64;72.62
58092;BME280;43896;48.178;11.578;2023-02-13T08:22:25;97812.97;;;3.45;73.79
58092;BME280;43896;48.178;11.578;2023-02-13T08:24:51;97814.97;;;3.18;74.57
58092;BME280;43896;48.178;11.578;2023-02-13T08:27:16;97814.25;;;3.55;73.63
58092;BME280;43896;48.178;11.578;2023-02-13T08:29:42;97806.03;;;3.46;73.92
58092;BME280;43896;48.178;11.578;2023-02-13T08:32:07;97816.47;;;3.65;73.55
58092;BME280;43896;48.178;11.578;2023-02-13T08:34:32;97827.19;;;3.78;72.25
58092;BME280;43896;48.178;11.578;2023-02-13T08:36:58;97818.38;;;3.61;73.25
58092;BME280;43896;48.178;11.578;2023-02-13T08:39:23;97817.06;;;3.71;73.09
58092;BME280;43896;48.178;11.578;2023-02-13T08:41:48;97808.03;;;3.18;74.32
58092;BME280;43896;48.178;11.578;2023-02-13T08:44:14;97827.31;;;3.33;74.03
58092;BME280;43896;48.178;11.578;2023-02-13T08:46:39;97810.16;;;3.09;75.60
58092;BME280;43896;48.178;11.578;2023-02-13T08:49:04;97817.56;;;3.38;74.53
58092;BME280;43896;48.178;11.578;2023-02-13T08:51:30;97833.41;;;3.54;73.91
58092;BME280;43896;48.178;11.578;2023-02-13T08:53:55;97827.00;;;3.62;72.92
58092;BME280;43896;48.178;11.578;2023-02-13T08:56:21;97818.88;;;3.49;72.07
58092;BME280;43896;48.178;11.578;2023-02-13T08:58:48;97808.22;;;3.55;73.05
58092;BME280;43896;48.178;11.578;2023-02-13T09:01:14;97826.81;;;3.66;72.49
58092;BME280;43896;48.178;11.578;2023-02-13T09:03:39;97829.00;;;3.14;73.27
58092;BME280;43896;48.178;11.578;2023-02-13T09:06:05;97819.00;;;3.05;74.67
58092;BME280;43896;48.178;11.578;2023-02-13T09:08:30;97843.00;;;2.67;75.24
58092;BME280;43896;48.178;11.578;2023-02-13T09:10:58;97836.41;;;3.03;75.08
58092;BME280;43896;48.178;11.578;2023-02-13T09:13:25;97842.94;;;3.54;73.40
58092;BME280;43896;48.178;11.578;2023-02-13T09:15:50;97816.13;;;3.72;71.77
58092;BME280;43896;48.178;11.578;2023-02-13T09:18:15;97833.38;;;3.96;70.85
58092;BME280;43896;48.178;11.578;2023-02-13T09:20:40;97854.38;;;3.91;70.88
58092;BME280;43896;48.178;11.578;2023-02-13T09:23:06;97857.25;;;3.64;72.77
58092;BME280;43896;48.178;11.578;2023-02-13T09:25:31;97852.59;;;3.91;71.71
58092;BME280;43896;48.178;11.578;2023-02-13T09:27:58;97854.38;;;3.91;71.68
58092;BME280;43896;48.178;11.578;2023-02-13T09:30:23;97850.34;;;4.04;70.85
58092;BME280;43896;48.178;11.578;2023-02-13T09:32:50;97814.13;;;3.98;69.65
58092;BME280;43896;48.178;11.578;2023-02-13T09:35:16;97849.84;;;4.15;69.70
58092;BME280;43896;48.178;11.578;2023-02-13T09:37:42;97830.00;;;3.52;71.62
58092;BME280;43896;48.178;11.578;2023-02-13T09:40:35;97855.22;;;3.71;71.63
58092;BME280;43896;48.178;11.578;2023-02-13T09:43:20;97842.53;;;3.22;74.25
58092;BME280;43896;48.178;11.578;2023-02-13T09:45:49;97856.22;;;3.48;73.10
58092;BME280;43896;48.178;11.578;2023-02-13T09:48:36;97853.91;;;3.40;73.16
58092;BME280;43896;48.178;11.578;2023-02-13T09:51:03;97852.31;;;3.58;72.87
58092;BME280;43896;48.178;11.578;2023-02-13T09:53:29;97841.63;;;3.23;73.67
58092;BME280;43896;48.178;11.578;2023-02-13T09:56:06;97857.78;;;3.09;73.80
58092;BME280;43896;48.178;11.578;2023-02-13T09:58:40;97847.88;;;3.60;72.46
58092;BME280;43896;48.178;11.578;2023-02-13T10:01:36;97862.56;;;3.20;73.92
58092;BME280;43896;48.178;11.578;2023-02-13T10:04:38;97857.81;;;3.50;73.50
58092;BME280;43896;48.178;11.578;2023-02-13T10:07:22;97868.22;;;3.50;72.71
58092;BME280;43896;48.178;11.578;2023-02-13T10:10:00;97866.63;;;3.89;70.84
58092;BME280;43896;48.178;11.578;2023-02-13T10:18:24;97843.44;;;3.42;72.33
58092;BME280;43896;48.178;11.578;2023-02-13T10:20:59;97856.06;;;3.30;72.91
58092;BME280;43896;48.178;11.578;2023-02-13T10:23:33;97854.69;;;3.63;72.29
58092;BME280;43896;48.178;11.578;2023-02-13T10:26:15;97847.53;;;3.88;71.23
58092;BME280;43896;48.178;11.578;2023-02-13T10:28:49;97840.72;;;3.86;71.07
58092;BME280;43896;48.178;11.578;2023-02-13T10:31:38;97840.31;;;3.95;71.49
58092;BME280;43896;48.178;11.578;2023-02-13T10:34:11;97848.63;;;4.03;71.30
58092;BME280;43896;48.178;11.578;2023-02-13T10:36:43;97839.44;;;3.75;72.58
58092;BME280;43896;48.178;11.578;2023-02-13T10:39:26;97831.50;;;3.79;71.89
58092;BME280;43896;48.178;11.578;2023-02-13T10:42:13;97835.34;;;4.09;70.35
58092;BME280;43896;48.178;11.578;2023-02-13T10:47:52;97838.91;;;4.07;71.42
58092;BME280;43896;48.178;11.578;2023-02-13T10:53:23;97812.38;;;3.38;76.21
58092;BME280;43896;48.178;11.578;2023-02-13T10:59:01;97833.13;;;3.61;72.65
58092;BME280;43896;48.178;11.578;2023-02-13T11:02:00;97833.63;;;3.89;72.43
58092;BME280;43896;48.178;11.578;2023-02-13T11:04:23;97827.47;;;3.71;72.53
58092;BME280;43896;48.178;11.578;2023-02-13T11:06:58;97817.72;;;3.56;72.91
58092;BME280;43896;48.178;11.578;2023-02-13T11:09:24;97817.59;;;3.99;71.49
58092;BME280;43896;48.178;11.578;2023-02-13T11:11:50;97828.69;;;3.22;74.25
58092;BME280;43896;48.178;11.578;2023-02-13T11:16:57;97819.19;;;3.82;72.15
58092;BME280;43896;48.178;11.578;2023-02-13T11:19:37;97816.72;;;3.79;71.69
58092;BME280;43896;48.178;11.578;2023-02-13T11:22:14;97821.66;;;3.85;71.43
58092;BME280;43896;48.178;11.578;2023-02-13T11:24:53;97822.09;;;4.14;71.04
58092;BME280;43896;48.178;11.578;2023-02-13T11:27:26;97810.97;;;3.91;70.83
58092;BME280;43896;48.178;11.578;2023-02-13T11:29:57;97821.59;;;3.87;70.51
58092;BME280;43896;48.178;11.578;2023-02-13T11:32:25;97817.63;;;3.78;70.45
58092;BME280;43896;48.178;11.578;2023-02-13T11:34:51;97814.66;;;4.06;70.71
58092;BME280;43896;48.178;11.578;2023-02-13T11:37:22;97821.06;;;4.18;69.75
58092;BME280;43896;48.178;11.578;2023-02-13T11:39:50;97811.50;;;4.19;70.08
58092;BME280;43896;48.178;11.578;2023-02-13T11:42:20;97820.00;;;4.22;69.13
58092;BME280;43896;48.178;11.578;2023-02-13T11:44:51;97801.69;;;3.86;70.72
58092;BME280;43896;48.178;11.578;2023-02-13T11:47:30;97825.66;;;2.90;73.31
58092;BME280;43896;48.178;11.578;2023-02-13T11:49:56;97798.03;;;3.08;72.79
58092;BME280;43896;48.178;11.578;2023-02-13T11:52:25;97818.06;;;2.63;74.49
58092;BME280;43896;48.178;11.578;2023-02-13T11:55:00;97806.38;;;3.16;73.45
58092;BME280;43896;48.178;11.578;2023-02-13T11:57:35;97805.97;;;3.87;71.35
58092;BME280;43896;48.178;11.578;2023-02-13T12:02:57;97821.03;;;3.80;70.00
58092;BME280;43896;48.178;11.578;2023-02-13T12:05:26;97815.50;;;4.07;69.79
58092;BME280;43896;48.178;11.578;2023-02-13T12:07:54;97807.59;;;4.08;69.83
58092;BME280;43896;48.178;11.578;2023-02-13T12:10:29;97821.84;;;4.20;70.37
58092;BME280;43896;48.178;11.578;2023-02-13T12:15:35;97803.03;;;3.94;70.02
58092;BME280;43896;48.178;11.578;2023-02-13T12:18:15;97804.91;;;3.91;70.64
58092;BME280;43896;48.178;11.578;2023-02-13T12:20:52;97810.53;;;2.99;73.45
58092;BME280;43896;48.178;11.578;2023-02-13T12:26:47;97809.75;;;3.80;71.10
58092;BME280;43896;48.178;11.578;2023-02-13T12:32:27;97787.72;;;4.26;68.46
58092;BME280;43896;48.178;11.578;2023-02-13T12:49:05;97778.50;;;3.80;71.46
58092;BME280;43896;48.178;11.578;2023-02-13T12:51:46;97779.59;;;3.34;72.94
58092;BME280;43896;48.178;11.578;2023-02-13T12:57:13;97767.34;;;3.78;70.93
58092;BME280;43896;48.178;11.578;2023-02-13T12:59:46;97773.81;;;4.07;70.01
58092;BME280;43896;48.178;11.578;2023-02-13T13:05:13;97764.28;;;4.26;68.77
58092;BME280;43896;48.178;11.578;2023-02-13T13:07:55;97763.28;;;4.29;68.71
58092;BME280;43896;48.178;11.578;2023-02-13T13:15:55;97774.81;;;4.42;68.93
58092;BME280;43896;48.178;11.578;2023-02-13T13:18:48;97754.63;;;4.28;67.90
58092;BME280;43896;48.178;11.578;2023-02-13T13:24:04;97772.28;;;4.22;69.20
58092;BME280;43896;48.178;11.578;2023-02-13T13:26:37;97775.53;;;3.89;69.70
58092;BME280;43896;48.178;11.578;2023-02-13T13:29:23;97782.66;;;3.65;70.79
58092;BME280;43896;48.178;11.578;2023-02-13T13:32:15;97781.59;;;2.65;74.40
58092;BME280;43896;48.178;11.578;2023-02-13T13:34:42;97781.66;;;3.06;72.91
58092;BME280;43896;48.178;11.578;2023-02-13T13:42:48;97782.03;;;3.79;70.93
58092;BME280;43896;48.178;11.578;2023-02-13T13:45:31;97789.00;;;3.57;71.10
58092;BME280;43896;48.178;11.578;2023-02-13T13:50:47;97776.97;;;3.75;70.29
58092;BME280;43896;48.178;11.578;2023-02-13T13:53:15;97792.78;;;3.71;71.81
58092;BME280;43896;48.178;11.578;2023-02-13T13:58:40;97745.53;;;3.80;70.66
58092;BME280;43896;48.178;11.578;2023-02-13T14:03:57;97776.84;;;3.79;71.44
58092;BME280;43896;48.178;11.578;2023-02-13T14:06:28;97767.47;;;3.74;71.63
58092;BME280;43896;48.178;11.578;2023-02-13T14:11:56;97731.66;;;3.80;70.70
58092;BME280;43896;48.178;11.578;2023-02-13T14:16:52;97750.00;;;3.57;71.96
58092;BME280;43896;48.178;11.578;2023-02-13T14:24:59;97765.94;;;4.08;71.24
58092;BME280;43896;48.178;11.578;2023-02-13T14:27:31;97769.09;;;3.77;71.75
58092;BME280;43896;48.178;11.578;2023-02-13T14:29:58;97756.03;;;3.98;71.50
58092;BME280;43896;48.178;11.578;2023-02-13T14:32:34;97770.31;;;4.08;70.68
58092;BME280;43896;48.178;11.578;2023-02-13T14:35:05;97763.75;;;3.80;71.46
58092;BME280;43896;48.178;11.578;2023-02-13T14:37:52;97773.28;;;2.99;74.93
58092;BME280;43896;48.178;11.578;2023-02-13T14:42:45;97756.03;;;3.79;72.60
58092;BME280;43896;48.178;11.578;2023-02-13T14:45:15;97752.91;;;3.70;71.98
58092;BME280;43896;48.178;11.578;2023-02-13T14:47:44;97758.63;;;4.17;71.08
58092;BME280;43896;48.178;11.578;2023-02-13T14:50:22;97756.94;;;3.97;70.61
58092;BME280;43896;48.178;11.578;2023-02-13T14:52:49;97758.13;;;3.70;72.17
58092;BME280;43896;48.178;11.578;2023-02-13T14:55:31;97760.03;;;3.86;71.93
58092;BME280;43896;48.178;11.578;2023-02-13T14:58:06;97739.09;;;3.89;71.47
58092;BME280;43896;48.178;11.578;2023-02-13T15:03:49;97755.06;;;3.61;72.29
58092;BME280;43896;48.178;11.578;2023-02-13T15:06:30;97758.28;;;4.05;71.04
58092;BME280;43896;48.178;11.578;2023-02-13T15:08:59;97753.69;;;4.29;70.03
58092;BME280;43896;48.178;11.578;2023-02-13T15:11:37;97753.56;;;4.13;70.95
58092;BME280;43896;48.178;11.578;2023-02-13T15:14:19;97758.00;;;4.11;70.44
58092;BME280;43896;48.178;11.578;2023-02-13T15:16:53;97735.84;;;3.84;72.21
58092;BME280;43896;48.178;11.578;2023-02-13T15:19:21;97753.94;;;3.87;72.17
58092;BME280;43896;48.178;11.578;2023-02-13T15:21:53;97749.50;;;3.89;71.74
58092;BME280;43896;48.178;11.578;2023-02-13T15:24:20;97747.66;;;3.91;70.79
58092;BME280;43896;48.178;11.578;2023-02-13T15:27:00;97734.56;;;3.92;70.37